30  °C
Temperature
86  °F
Temperature
63  °F
 Dewpoint
17  °C
  Dewpoint
46  %
 Humidity
  Temperature
16  km/h
Wind Speed
9  kts
Wind Speed
10  mph
Wind Speed
4.5  m/s
Wind Speed
120°
East South
East

Wind Speed
Clear
Conditions
Pressure 1010.92 (hPa) - 29.85 (inHG)
Visibility 10.0 (km) - 6.2 (mi)

Sky Conditions
LGSA
Location Chania International 80 km (49.72 mi)
Metar :LGSA 191420Z 12009KT CAVOK 30/17 Q1011
Wed 19th June 17:20 pm

Nearest Airport
https://www.checkwx.com/weather/LGSA
  Metar Aviation API Data Provided by https://www.checkwx.com/ Original CSS/SVG/PHP scripts by weather34.com © 2015-2019